Sponsor www.jackysshop.nl


METAR rapporten vliegvelden

   
EBAW - Antwerp
Gewijzigd: 24-04-2019 09:50
Helder  
Helder  
   Wind: Zuiden 22.2 km/h
Wind: Zuiden 22.2 km/h
Temperatuur: 19°C
Dauwpunt: 10°C
Vochtigheid: 56%
Barometer: 997 hPa
Zicht: meer dan 10 km
Bewolking: Helder
EBAW 240750Z 17012KT CAVOK 19/10 Q0997 NOSIG
EBLG - Li├Ęge
Gewijzigd: 24-04-2019 09:50
Helder  
Helder  
   Wind: Zuiden 29.6 km/h
Wind: Zuiden 29.6 km/h
Temperatuur: 18°C
Dauwpunt: 9°C
Vochtigheid: 56%
Barometer: 999 hPa
Zicht: meer dan 10 km
Bewolking: Helder
EBLG 240750Z 18016KT CAVOK 18/09 Q0999 NOSIG
EBCV - Mons/Bergen
Gewijzigd: 24-04-2019 09:55
Licht bewolkt  
Licht bewolkt  
   Wind: ZZO 24.1 km/h
Wind: ZZO 24.1 km/h
Temperatuur: 18°C
Dauwpunt: 11°C
Vochtigheid: 64%
Barometer: 997 hPa
Bewolking: Licht bewolkt
Zicht: meer dan 10 km
Bewolking: Licht bewolkt 12000 ft
EBCV 240755Z AUTO 16013KT 9999 FEW120/// 18/11 Q0997 BLU
EHBK - Maastricht
Gewijzigd: 24-04-2019 09:55
Helder  
Helder  
   Wind: Zuiden 25.9 km/h
Wind: Zuiden 25.9 km/h
Temperatuur: 20°C
Dauwpunt: 9°C
Vochtigheid: 49%
Barometer: 999 hPa
Bewolking: Helder
Zicht: meer dan 10 km
Bewolking: Helder
EHBK 240755Z AUTO 17014KT 140V200 9999 NCD 20/09 Q0999 NOSIG
ELLX - Luxemburg
Gewijzigd: 24-04-2019 09:50
Helder  
Helder  
   Wind: ZZO 20.4 km/h
Wind: ZZO 20.4 km/h
Temperatuur: 15°C
Dauwpunt: 9°C
Vochtigheid: 68%
Barometer: 1002 hPa
Zicht: meer dan 10 km
Bewolking: Helder
ELLX 240750Z 16011KT CAVOK 15/09 Q1002 NOSIG
EBOS - Oostende
Gewijzigd: 24-04-2019 09:50
Helder  
Helder  
   Wind: ZZO 24.1 km/h
Wind: ZZO 24.1 km/h
Temperatuur: 17°C
Dauwpunt: 10°C
Vochtigheid: 64%
Barometer: 995 hPa
Zicht: meer dan 10 km
Bewolking: Helder
EBOS 240750Z 15013KT CAVOK 17/10 Q0995 NOSIG

Script ontwikkeld door  Saratoga-weather.org Aangepast voor de template door  Weerstation Leuven